MFDO2: Hudson Lake

Data processed at Sat Mar 10 2018 23:40


All information presented herein is the property of the government of the United States of America and may be revised or deleted at any time without prior notice.
Dissemination of this information without the expressed written consent of the Public Affairs Office, Tulsa District U.S. Army Corps of Engineers is strictly prohibited.
These data are gathered electronically and, as presented, have not undergone any form of quality control. These data are not guaranteed to be valid or correct.
Go to home page.
Go to station list.

Upstream stations:

Downstream station:
Previous Day
Next Day
Current Day
    
SHEF ID:       MFDO2     Lake Hudson near Locust Grove, O
STATION TYPE:  RESERVOIR

               PRECIP ELEVATION   STORAGE   TW-ELEV    INFLOW   RELEASE  AIR-TEMP  WIND-DIRWIND-SPEED REL-HUMID SOLAR-RAD   VOLTAGE  BAT-LOAD
                   in        ft     ac-ft        ft       cfs       cfs         F       deg       mph         %      W/m2      volt      volt
              Ccp-Rev   Ccp-Rev   Ccp-Rev   Ccp-Rev  Regi-Rev  Regi-Rev   Ccp-Rev   Ccp-Rev   Ccp-Rev   Ccp-Rev   Ccp-Rev   Ccp-Rev   Ccp-Rev
(US/Central)
03/08 00:00      0.00    620.20    213578    563.18      9585         0     36.36    275.00      1.00     70.10      0.00     12.11     11.70
03/08 01:00      0.00    620.25    214147    562.52      4410         0     36.28      4.30      1.70     76.00      0.00     12.10     11.70
03/08 02:00      0.00    620.31    214831    562.04      4434         0     32.68    201.70      2.20     66.33      0.00     12.09     11.70
03/08 03:00      0.00    620.32    214945    561.70      3356         0     32.41    216.40      0.60     70.18      0.00     12.08     11.61
03/08 04:00      0.00    620.38    215628    561.43      6264         0     31.55    271.00      1.20     85.01      0.00     12.08     11.61
03/08 05:00      0.00    620.31    214831    562.99     10345      1620     30.38    246.00      1.00     86.86      0.00     12.07     11.61
03/08 06:00      0.00    620.25    214147    568.13     14660     29700     30.60    235.70      0.60     87.65      0.00     12.06     11.61
03/08 07:00      0.00    620.27    214375    568.81     15609     25920     32.56      8.20      3.70     77.33      0.70     12.05     11.61
03/08 08:00      0.00    620.27    214375    568.60     19213     22950     34.59     21.30      4.70     64.90    107.00     12.06     11.61
03/08 09:00      0.00    620.08    212211    570.53     16460     31050     36.27     31.40      6.90     64.72    304.00     12.07     11.61
03/08 10:00      0.00    619.98    211078    571.11     11880     31860     38.48     39.40      5.00     55.97    480.70     12.59     11.61
03/08 11:00      0.00    619.80    209078    571.20      9306     31860     41.20     74.90      3.50     46.79    339.40     12.31     12.09
03/08 12:00      0.00    619.61    206967    571.20     10833     31320     44.42    105.00      1.60     36.04     31.80     12.54     11.86
03/08 13:00      0.00    619.45    205189    571.24      9112     31590     46.13     71.60      2.40     35.02     39.60     12.73     12.09
03/08 14:00      0.00    619.31    203634    571.04     11302     31320     48.74     32.70      2.80     37.29     41.30     12.36     12.25
03/08 15:00      0.00    619.15    201856    571.00     13210     31050     51.78     30.60      2.30     33.29     39.30     12.30     11.93
03/08 16:00      0.00    619.09    201190    567.27     11194     26675     54.25     37.20      2.30     29.67     38.70     12.45     11.93
03/08 17:00      0.00    619.21    202523    565.17     11921      3222     56.53     82.20      1.50     29.81     69.60     12.36     12.01
03/08 18:00      0.00    619.18    202190    563.43     13239         0     57.58    297.80      0.90     26.18      7.90     12.28     11.93
03/08 19:00      0.00    619.31    203634    562.57     11130         0     54.46     95.90      0.70     29.65      0.00     12.25     11.86
03/08 20:00      0.00    619.42    204856    562.04     10486         0     52.57    105.70      1.50     30.55      0.00     12.23     11.86
03/08 21:00      0.00    619.48    205523    561.64     11023         0     48.40     29.10      0.90     49.16      0.00     12.21     11.77
03/08 22:00      0.00    619.57    206523    561.34      9679         0     49.73     24.40      0.90     38.33      0.00     12.20     11.77
03/08 23:00      0.00    619.59    206745    561.11      8423         0     50.59     36.90      1.50     36.55      0.00     12.18     11.77